createdAt,value
2016-08-25T00:02:04.199Z,19.1
2016-08-25T00:07:03.210Z,19.1
2016-08-25T00:12:03.850Z,19.0
2016-08-25T00:17:03.213Z,18.8
2016-08-25T00:22:03.127Z,18.8
2016-08-25T00:27:03.394Z,18.8
2016-08-25T00:32:03.842Z,18.6
2016-08-25T00:37:03.500Z,18.5
2016-08-25T00:42:03.043Z,18.5
2016-08-25T00:47:06.809Z,18.4
2016-08-25T00:52:03.290Z,18.4
2016-08-25T00:57:03.806Z,18.4
2016-08-25T01:02:03.401Z,18.3
2016-08-25T01:07:03.057Z,18.3
2016-08-25T01:12:03.701Z,18.2
2016-08-25T01:17:03.607Z,18.1
2016-08-25T01:22:03.108Z,18.1
2016-08-25T01:27:03.632Z,18.0
2016-08-25T01:32:03.385Z,18.0
2016-08-25T01:37:03.004Z,17.8
2016-08-25T01:42:03.381Z,17.8
2016-08-25T01:47:03.738Z,17.7
2016-08-25T01:52:03.426Z,17.6
2016-08-25T01:57:03.763Z,17.6
2016-08-25T02:07:03.594Z,17.4
2016-08-25T02:12:03.174Z,17.5
2016-08-25T02:17:03.724Z,17.4
2016-08-25T02:22:03.026Z,17.3
2016-08-25T02:27:03.254Z,17.3
2016-08-25T02:32:03.134Z,17.3
2016-08-25T02:37:03.127Z,17.0
2016-08-25T02:42:03.438Z,17.0
2016-08-25T02:47:03.139Z,17.0
2016-08-25T02:52:03.282Z,16.9
2016-08-25T02:57:03.648Z,16.9
2016-08-25T03:02:03.130Z,16.8
2016-08-25T03:07:03.430Z,16.6
2016-08-25T03:12:03.892Z,16.6
2016-08-25T03:17:03.436Z,16.6
2016-08-25T03:22:03.755Z,16.5
2016-08-25T03:27:03.259Z,16.4
2016-08-25T03:32:03.426Z,16.2
2016-08-25T03:37:03.030Z,16.1
2016-08-25T03:42:03.355Z,16.1
2016-08-25T03:47:04.053Z,16.1
2016-08-25T03:52:03.435Z,16.1
2016-08-25T03:57:03.356Z,16.0
2016-08-25T04:02:17.918Z,16.0
2016-08-25T04:07:03.764Z,16.0
2016-08-25T04:12:03.218Z,16.0
2016-08-25T04:17:17.064Z,15.9
2016-08-25T04:22:03.360Z,15.9
2016-08-25T04:27:03.190Z,15.8
2016-08-25T04:32:16.589Z,15.7
2016-08-25T04:37:02.986Z,15.7
2016-08-25T04:42:02.947Z,15.8
2016-08-25T04:47:21.570Z,15.8
2016-08-25T04:52:03.123Z,15.8
2016-08-25T04:57:02.946Z,15.8
2016-08-25T05:02:17.117Z,15.9
2016-08-25T05:07:03.276Z,16.0
2016-08-25T05:12:03.784Z,16.1
2016-08-25T05:17:20.663Z,16.1
2016-08-25T05:22:03.196Z,16.3
2016-08-25T05:27:03.510Z,16.4
2016-08-25T05:32:17.238Z,16.8
2016-08-25T05:37:03.685Z,17.0
2016-08-25T05:42:03.185Z,17.2
2016-08-25T05:47:16.692Z,17.4
2016-08-25T05:52:03.267Z,17.3
2016-08-25T05:57:03.504Z,17.6
2016-08-25T06:02:21.741Z,17.8
2016-08-25T06:07:03.673Z,18.2
2016-08-25T06:12:03.438Z,18.2
2016-08-25T06:17:17.504Z,18.6
2016-08-25T06:22:03.463Z,18.6
2016-08-25T06:27:03.681Z,18.8
2016-08-25T06:32:17.498Z,19.1
2016-08-25T06:37:03.415Z,19.5
2016-08-25T06:42:03.693Z,19.7
2016-08-25T06:47:16.904Z,19.9
2016-08-25T06:52:03.362Z,19.9
2016-08-25T06:57:03.603Z,20.4
2016-08-25T07:02:20.793Z,20.7
2016-08-25T07:07:03.116Z,21.0
2016-08-25T07:12:03.101Z,21.0
2016-08-25T07:17:17.283Z,21.3
2016-08-25T07:22:03.675Z,21.9
2016-08-25T07:27:03.259Z,21.9
2016-08-25T07:32:16.594Z,22.2
2016-08-25T07:37:03.548Z,22.6
2016-08-25T07:42:03.260Z,23.0
2016-08-25T07:47:16.782Z,23.6
2016-08-25T07:52:02.818Z,23.6
2016-08-25T07:57:03.614Z,24.0
2016-08-25T08:02:22.239Z,24.7
2016-08-25T08:07:02.912Z,25.1
2016-08-25T08:12:03.735Z,25.1
2016-08-25T08:17:21.152Z,25.5
2016-08-25T08:22:03.525Z,25.8
2016-08-25T08:27:03.430Z,26.2
2016-08-25T08:32:27.388Z,26.4
2016-08-25T08:37:02.889Z,26.7
2016-08-25T08:42:03.741Z,27.7
2016-08-25T08:47:22.456Z,27.6
2016-08-25T08:52:03.655Z,28.1
2016-08-25T08:57:02.761Z,28.3
2016-08-25T09:02:21.855Z,28.7
2016-08-25T09:07:03.134Z,29.2
2016-08-25T09:12:03.243Z,29.2
2016-08-25T09:17:21.300Z,30.0
2016-08-25T09:22:03.274Z,30.0
2016-08-25T09:27:03.267Z,30.3
2016-08-25T09:32:26.782Z,30.3
2016-08-25T09:37:03.772Z,31.2
2016-08-25T09:42:02.847Z,31.1
2016-08-25T09:47:21.975Z,31.5
2016-08-25T09:52:03.204Z,31.9
2016-08-25T09:57:03.171Z,31.9
2016-08-25T10:02:22.102Z,32.4
2016-08-25T10:07:03.387Z,32.4
2016-08-25T10:12:03.581Z,32.7
2016-08-25T10:17:17.646Z,32.9
2016-08-25T10:22:03.856Z,33.5
2016-08-25T10:27:03.603Z,33.8
2016-08-25T10:32:17.909Z,33.9
2016-08-25T10:37:03.732Z,34.2
2016-08-25T10:42:03.266Z,34.4
2016-08-25T10:47:17.031Z,34.5
2016-08-25T10:52:03.376Z,35.0
2016-08-25T10:57:03.518Z,35.0
2016-08-25T11:02:21.701Z,35.6
2016-08-25T11:07:03.455Z,35.5
2016-08-25T11:12:03.535Z,36.1
2016-08-25T11:17:27.987Z,36.2
2016-08-25T11:22:03.100Z,36.3
2016-08-25T11:27:03.930Z,36.7
2016-08-25T11:32:17.615Z,36.8
2016-08-25T11:37:03.643Z,36.8
2016-08-25T11:42:03.639Z,37.0
2016-08-25T11:47:17.520Z,37.0
2016-08-25T11:52:02.978Z,37.6
2016-08-25T11:57:03.097Z,37.6
2016-08-25T12:02:17.163Z,37.8
2016-08-25T12:07:02.872Z,38.3
2016-08-25T12:12:03.781Z,38.3
2016-08-25T12:17:17.246Z,38.7
2016-08-25T12:22:03.082Z,38.7
2016-08-25T12:27:03.884Z,39.0
2016-08-25T12:32:21.809Z,39.1
2016-08-25T12:37:03.716Z,39.2
2016-08-25T12:42:03.566Z,39.2
2016-08-25T12:47:17.062Z,39.7
2016-08-25T12:52:03.435Z,40.0
2016-08-25T12:57:03.161Z,40.1
2016-08-25T13:02:16.894Z,40.0
2016-08-25T13:07:03.520Z,40.3
2016-08-25T13:12:03.360Z,40.6
2016-08-25T13:17:12.032Z,40.8
2016-08-25T13:22:03.133Z,40.7
2016-08-25T13:27:03.773Z,40.8
2016-08-25T13:32:17.336Z,41.3
2016-08-25T13:37:03.151Z,41.5
2016-08-25T13:42:03.701Z,41.8
2016-08-25T13:47:22.449Z,42.0
2016-08-25T13:52:02.905Z,41.9
2016-08-25T13:57:03.550Z,42.6
2016-08-25T20:02:03.049Z,27.9
2016-08-25T20:07:03.336Z,27.7
2016-08-25T20:12:03.818Z,27.7
2016-08-25T20:17:04.111Z,27.6
2016-08-25T20:22:03.735Z,27.5
2016-08-25T20:27:03.507Z,27.4
2016-08-25T20:32:03.650Z,27.0
2016-08-25T20:37:03.260Z,26.8
2016-08-25T20:47:04.277Z,26.5
2016-08-25T20:52:03.044Z,26.4
2016-08-25T20:57:03.106Z,26.0
2016-08-25T21:02:04.394Z,25.9
2016-08-25T21:07:03.671Z,25.9
2016-08-25T21:12:03.799Z,25.7
2016-08-25T21:17:03.543Z,25.3
2016-08-25T21:22:03.564Z,25.2
2016-08-25T21:27:03.379Z,25.1
2016-08-25T21:32:03.489Z,25.0
2016-08-25T21:37:03.751Z,24.9
2016-08-25T21:42:03.622Z,24.7
2016-08-25T21:47:03.252Z,24.5
2016-08-25T21:52:02.899Z,24.3
2016-08-25T21:57:03.751Z,24.2
2016-08-25T22:02:03.995Z,23.9
2016-08-25T22:07:03.669Z,23.7
2016-08-25T22:12:03.418Z,23.6
2016-08-25T22:22:03.979Z,23.3
2016-08-25T22:27:03.093Z,23.3
2016-08-25T22:32:03.171Z,23.3
2016-08-25T22:37:03.568Z,23.1
2016-08-25T22:42:03.155Z,23.0
2016-08-25T22:47:03.677Z,22.8
2016-08-25T22:52:02.867Z,22.8
2016-08-25T22:57:03.099Z,22.7
2016-08-25T23:02:03.594Z,22.5
2016-08-25T23:07:03.078Z,22.4
2016-08-25T23:12:03.009Z,22.2
2016-08-25T23:17:03.684Z,22.1
2016-08-25T23:22:03.602Z,22.0
2016-08-25T23:27:03.270Z,21.9
2016-08-25T23:32:03.805Z,21.8
2016-08-25T23:37:03.712Z,21.7
2016-08-25T23:42:03.273Z,21.7
2016-08-25T23:47:03.767Z,21.5
2016-08-25T23:52:03.562Z,21.4
2016-08-25T23:57:03.134Z,21.3
